Time;durP1;ratioP1;P1;durP2;ratioP2;P2;SDS_P1;SDS_P2;PMS_P1;PMS_P2;Temp;Humidity;BMP_temperature;BMP_pressure;BME280_temperature;BME280_humidity;BME280_pressure;Samples;Min_cycle;Max_cycle;Signal;HPM_P1;HPM_P2
2023/04/06 00:00:08;;;;;;;11.33;9.50;;;5.00;1.00;;;;;;5085912;28;20450;-80
2023/04/06 00:02:36;;;;;;;10.47;9.10;;;5.00;1.00;;;;;;5084079;28;20492;-81
2023/04/06 00:05:05;;;;;;;10.43;9.37;;;5.00;1.00;;;;;;5083149;28;20933;-80
2023/04/06 00:07:34;;;;;;;9.40;8.70;;;4.90;1.00;;;;;;5084156;28;20503;-81
2023/04/06 00:10:03;;;;;;;10.35;9.27;;;4.90;1.00;;;;;;5075850;28;20458;-81
2023/04/06 00:12:31;;;;;;;10.00;9.20;;;4.90;1.00;;;;;;5078126;28;20297;-80
2023/04/06 00:15:01;;;;;;;10.03;9.17;;;4.80;1.00;;;;;;5074305;28;20577;-80
2023/04/06 00:17:29;;;;;;;11.48;10.23;;;4.80;1.00;;;;;;5076865;28;20489;-80
2023/04/06 00:19:58;;;;;;;12.23;9.57;;;4.80;1.00;;;;;;5074127;28;20200;-81
2023/04/06 00:22:26;;;;;;;11.83;10.63;;;4.80;1.00;;;;;;5079451;28;20883;-81
2023/04/06 00:24:54;;;;;;;11.13;9.90;;;4.70;1.00;;;;;;5085491;28;20452;-80
2023/04/06 00:27:22;;;;;;;10.23;9.43;;;4.70;1.00;;;;;;5084514;28;20540;-80
2023/04/06 00:29:50;;;;;;;15.18;12.00;;;4.70;1.00;;;;;;5081020;28;20954;-80
2023/04/06 00:32:20;;;;;;;11.32;10.13;;;4.70;1.00;;;;;;5086197;28;20247;-79
2023/04/06 00:34:48;;;;;;;11.05;9.95;;;4.80;1.00;;;;;;5085133;28;20256;-79
2023/04/06 00:37:16;;;;;;;13.23;11.23;;;4.70;1.00;;;;;;5082711;28;20196;-81
2023/04/06 00:39:45;;;;;;;11.30;10.25;;;4.60;1.00;;;;;;5081509;28;20211;-80
2023/04/06 00:42:14;;;;;;;11.55;10.30;;;4.60;1.00;;;;;;5083176;28;20227;-79
2023/04/06 00:44:42;;;;;;;10.57;9.57;;;4.60;12.00;;;;;;5082717;28;21205;-81
2023/04/06 00:47:11;;;;;;;10.43;9.40;;;4.60;1.90;;;;;;5082458;28;20216;-80
2023/04/06 00:49:40;;;;;;;10.95;9.85;;;4.60;3.10;;;;;;5079182;28;20460;-80
2023/04/06 00:52:09;;;;;;;10.30;9.25;;;4.60;4.40;;;;;;5080178;28;20243;-81
2023/04/06 00:54:38;;;;;;;13.32;9.43;;;4.60;4.80;;;;;;5079533;28;20208;-81
2023/04/06 00:57:06;;;;;;;10.60;9.50;;;4.60;4.70;;;;;;5081735;28;20208;-79
2023/04/06 00:59:35;;;;;;;9.95;8.95;;;4.50;5.40;;;;;;5083931;28;20224;-82
2023/04/06 01:02:03;;;;;;;13.98;11.02;;;4.40;5.80;;;;;;5087318;28;20237;-81
2023/04/06 01:04:33;;;;;;;12.30;10.75;;;4.40;6.60;;;;;;5090315;28;20848;-81
2023/04/06 01:07:03;;;;;;;11.25;10.05;;;4.50;7.90;;;;;;5088538;28;20208;-82
2023/04/06 01:09:31;;;;;;;10.60;9.70;;;4.40;6.70;;;;;;5088357;28;20234;-81
2023/04/06 01:12:00;;;;;;;10.23;9.40;;;4.40;6.20;;;;;;5089905;28;20245;-81
2023/04/06 01:14:29;;;;;;;9.52;8.65;;;4.40;8.00;;;;;;5089944;28;20580;-81
2023/04/06 01:17:00;;;;;;;10.50;9.55;;;4.40;7.60;;;;;;5087696;28;20305;-80
2023/04/06 01:19:29;;;;;;;9.90;8.88;;;4.30;6.60;;;;;;5089163;28;20274;-82
2023/04/06 01:21:57;;;;;;;9.95;9.05;;;4.30;7.90;;;;;;5088674;28;20222;-78
2023/04/06 01:24:26;;;;;;;9.47;8.63;;;4.30;8.60;;;;;;5083371;28;20286;-80
2023/04/06 01:26:56;;;;;;;9.00;8.40;;;4.30;10.00;;;;;;5084602;28;20542;-79
2023/04/06 01:29:24;;;;;;;11.63;8.70;;;4.20;11.00;;;;;;5079651;28;22652;-81
2023/04/06 01:31:52;;;;;;;9.80;8.90;;;4.30;12.50;;;;;;5086675;28;20506;-79
2023/04/06 01:34:21;;;;;;;10.65;8.85;;;4.20;12.50;;;;;;5087047;28;20310;-81
2023/04/06 01:36:50;;;;;;;10.40;9.38;;;4.20;13.60;;;;;;5088771;28;20207;-81
2023/04/06 01:39:18;;;;;;;9.95;9.15;;;4.20;14.60;;;;;;5080956;28;20233;-82
2023/04/06 01:41:47;;;;;;;10.30;9.30;;;4.20;15.40;;;;;;5080561;28;20239;-81
2023/04/06 01:44:18;;;;;;;10.47;9.60;;;4.10;16.40;;;;;;5079599;28;20578;-80
2023/04/06 01:46:46;;;;;;;10.40;9.40;;;4.10;16.80;;;;;;5081052;28;20453;-81
2023/04/06 01:49:15;;;;;;;10.18;9.25;;;4.10;18.50;;;;;;5077269;28;20724;-82
2023/04/06 01:51:43;;;;;;;10.77;9.65;;;4.10;20.00;;;;;;5079660;28;20211;-82
2023/04/06 01:54:12;;;;;;;10.25;9.45;;;4.10;19.80;;;;;;5087626;28;20211;-81
2023/04/06 01:56:40;;;;;;;9.95;9.25;;;4.10;22.10;;;;;;5083090;28;20196;-81
2023/04/06 01:59:10;;;;;;;11.05;10.05;;;4.00;23.90;;;;;;5089150;28;20190;-81
2023/04/06 02:01:38;;;;;;;10.98;10.02;;;4.00;22.40;;;;;;5088615;28;20222;-81
2023/04/06 02:04:07;;;;;;;11.93;10.55;;;4.10;21.00;;;;;;5091225;28;20218;-82
2023/04/06 02:06:35;;;;;;;11.00;10.02;;;4.00;20.00;;;;;;5085544;28;21053;-83
2023/04/06 02:09:03;;;;;;;10.20;9.40;;;4.00;18.50;;;;;;5087813;28;20198;-81
2023/04/06 02:11:32;;;;;;;10.90;10.00;;;4.00;19.90;;;;;;5087863;28;20229;-82
2023/04/06 02:14:01;;;;;;;11.00;10.05;;;4.00;20.40;;;;;;5087144;28;20195;-83
2023/04/06 02:16:31;;;;;;;10.90;9.90;;;4.00;19.20;;;;;;5085092;28;20277;-83
2023/04/06 02:18:59;;;;;;;9.95;9.15;;;4.00;18.40;;;;;;5091577;28;20191;-81
2023/04/06 02:21:27;;;;;;;10.48;9.68;;;3.90;20.10;;;;;;5091773;28;20226;-82
2023/04/06 02:23:55;;;;;;;11.00;9.60;;;3.90;19.40;;;;;;5093782;28;20192;-82
2023/04/06 02:26:24;;;;;;;14.32;9.57;;;3.90;20.90;;;;;;5092099;28;20642;-82
2023/04/06 02:28:52;;;;;;;10.20;9.50;;;3.90;21.70;;;;;;5094433;28;20668;-82
2023/04/06 02:31:20;;;;;;;10.35;9.50;;;3.90;21.50;;;;;;5089465;28;20758;-82
2023/04/06 02:33:50;;;;;;;10.95;10.00;;;3.90;21.30;;;;;;5089074;28;20702;-81
2023/04/06 02:36:18;;;;;;;10.70;9.73;;;3.90;21.40;;;;;;5088864;28;20247;-80
2023/04/06 02:38:47;;;;;;;8.98;8.35;;;3.90;21.80;;;;;;5091545;28;20278;-80
2023/04/06 02:41:15;;;;;;;10.63;9.82;;;3.90;21.50;;;;;;5088191;28;20199;-81
2023/04/06 02:43:43;;;;;;;10.88;9.60;;;3.80;21.50;;;;;;5093121;28;20713;-81
2023/04/06 02:46:11;;;;;;;10.55;9.45;;;3.80;22.40;;;;;;5087719;28;20668;-80
2023/04/06 02:48:40;;;;;;;13.93;9.68;;;3.70;21.80;;;;;;5093331;28;20196;-82
2023/04/06 02:51:09;;;;;;;11.60;9.05;;;3.70;24.40;;;;;;5093383;28;20194;-83
2023/04/06 02:53:38;;;;;;;10.82;9.73;;;3.70;25.60;;;;;;5096988;28;20248;-82
2023/04/06 02:56:07;;;;;;;10.07;9.25;;;3.80;24.80;;;;;;5093921;28;20184;-82
2023/04/06 02:58:35;;;;;;;10.52;9.52;;;3.70;24.20;;;;;;5090784;28;20254;-83
2023/04/06 03:01:03;;;;;;;9.43;8.63;;;3.80;27.00;;;;;;5093809;28;20199;-79
2023/04/06 03:03:32;;;;;;;9.73;8.82;;;3.80;25.40;;;;;;5094336;28;20241;-81
2023/04/06 03:06:00;;;;;;;11.27;10.18;;;3.80;25.30;;;;;;5094693;28;20201;-80
2023/04/06 03:08:30;;;;;;;30.23;17.33;;;3.80;24.10;;;;;;5093201;28;20201;-82
2023/04/06 03:10:58;;;;;;;22.30;15.90;;;3.70;23.60;;;;;;5089244;28;20195;-82
2023/04/06 03:13:27;;;;;;;10.57;9.60;;;3.70;24.20;;;;;;5104573;28;20206;-82
2023/04/06 03:15:55;;;;;;;11.88;10.73;;;3.70;25.00;;;;;;5092509;28;20195;-81
2023/04/06 03:18:25;;;;;;;10.80;9.77;;;3.70;23.80;;;;;;5096641;28;20199;-81
2023/04/06 03:20:54;;;;;;;10.65;9.75;;;3.70;22.50;;;;;;5088484;28;20675;-81
2023/04/06 03:23:23;;;;;;;11.63;10.50;;;3.70;23.80;;;;;;5091626;28;20413;-82
2023/04/06 03:25:52;;;;;;;11.20;10.32;;;3.60;23.50;;;;;;5091091;28;20201;-81
2023/04/06 03:28:20;;;;;;;11.13;10.23;;;3.50;24.10;;;;;;5095229;28;20639;-82
2023/04/06 03:30:49;;;;;;;10.50;9.50;;;3.50;25.40;;;;;;5079631;28;20378;-82
2023/04/06 03:33:17;;;;;;;11.65;10.50;;;3.50;25.60;;;;;;5087694;28;20215;-82
2023/04/06 03:35:46;;;;;;;10.57;9.68;;;3.50;26.70;;;;;;5086381;28;20210;-82
2023/04/06 03:38:14;;;;;;;11.00;9.95;;;3.50;27.70;;;;;;5087001;28;20959;-83
2023/04/06 03:40:43;;;;;;;9.80;9.00;;;3.50;28.90;;;;;;5087170;28;20551;-82
2023/04/06 03:43:12;;;;;;;11.63;10.43;;;3.40;29.10;;;;;;5086785;28;20318;-81
2023/04/06 03:45:40;;;;;;;11.60;10.50;;;3.40;30.00;;;;;;5089482;28;20195;-82
2023/04/06 03:48:09;;;;;;;11.48;10.48;;;3.40;32.30;;;;;;5087992;28;20233;-82
2023/04/06 03:50:37;;;;;;;10.75;9.80;;;3.40;32.00;;;;;;5088054;28;20217;-82
2023/04/06 03:53:05;;;;;;;12.05;10.88;;;3.40;32.90;;;;;;5090495;28;20218;-81
2023/04/06 03:55:33;;;;;;;11.00;10.00;;;3.30;33.90;;;;;;5089799;28;20794;-83
2023/04/06 03:58:02;;;;;;;10.88;10.15;;;3.30;32.30;;;;;;5087535;28;20222;-83
2023/04/06 04:00:32;;;;;;;11.02;10.05;;;3.30;31.90;;;;;;5086647;28;20417;-82
2023/04/06 04:03:01;;;;;;;10.77;9.77;;;3.30;31.60;;;;;;5087622;28;20902;-81
2023/04/06 04:05:30;;;;;;;10.65;9.75;;;3.30;32.20;;;;;;5089402;28;20467;-82
2023/04/06 04:07:58;;;;;;;10.52;9.57;;;3.40;33.30;;;;;;5088661;28;20652;-78
2023/04/06 04:10:26;;;;;;;10.85;9.90;;;3.40;33.60;;;;;;5089571;28;20321;-81
2023/04/06 04:12:55;;;;;;;12.05;11.15;;;3.40;33.80;;;;;;5093028;28;20244;-81
2023/04/06 04:15:23;;;;;;;10.23;9.52;;;3.40;35.00;;;;;;5090770;28;20195;-83
2023/04/06 04:17:52;;;;;;;12.00;10.40;;;3.40;35.90;;;;;;5091019;28;20214;-82
2023/04/06 04:20:21;;;;;;;10.85;9.85;;;3.50;39.40;;;;;;5089707;28;20201;-82
2023/04/06 04:22:49;;;;;;;12.13;11.02;;;3.50;38.20;;;;;;5086236;28;21369;-80
2023/04/06 04:25:17;;;;;;;12.18;10.70;;;3.50;36.20;;;;;;5090666;28;20207;-81
2023/04/06 04:27:46;;;;;;;11.75;10.75;;;3.50;37.60;;;;;;5088960;28;20294;-81
2023/04/06 04:30:15;;;;;;;11.50;10.45;;;3.40;37.80;;;;;;5079819;28;20195;-78
2023/04/06 04:32:43;;;;;;;11.55;10.40;;;3.30;37.60;;;;;;5085603;28;20232;-82
2023/04/06 04:35:13;;;;;;;12.55;11.52;;;3.40;38.30;;;;;;5091214;28;20236;-82
2023/04/06 04:37:42;;;;;;;13.43;12.02;;;3.30;39.30;;;;;;5088902;28;20218;-81
2023/04/06 04:40:24;;;;;;;12.00;10.85;;;3.30;42.00;;;;;;5084380;28;20202;-81
2023/04/06 04:42:52;;;;;;;12.68;11.55;;;3.30;38.40;;;;;;5087335;28;20217;-82
2023/04/06 04:45:20;;;;;;;12.32;11.25;;;3.20;41.70;;;;;;5087101;28;20202;-81
2023/04/06 04:47:48;;;;;;;13.15;12.00;;;3.30;41.50;;;;;;5087813;28;20225;-81
2023/04/06 04:50:19;;;;;;;12.15;10.95;;;3.30;42.60;;;;;;5086551;28;20185;-81
2023/04/06 04:52:47;;;;;;;14.95;12.25;;;3.30;41.60;;;;;;5084971;28;20227;-81
2023/04/06 04:55:15;;;;;;;24.40;15.95;;;3.20;41.80;;;;;;5074972;28;20280;-80
2023/04/06 04:57:44;;;;;;;29.33;18.90;;;3.20;42.70;;;;;;5086927;28;20293;-82
2023/04/06 05:00:13;;;;;;;36.17;19.05;;;3.30;43.50;;;;;;5086139;28;20195;-80
2023/04/06 05:02:41;;;;;;;29.58;16.30;;;3.20;42.90;;;;;;5086928;28;20232;-81
2023/04/06 05:05:10;;;;;;;24.67;16.50;;;3.20;43.30;;;;;;5087335;28;20201;-81
2023/04/06 05:07:40;;;;;;;31.25;18.75;;;3.20;45.00;;;;;;5086501;28;20263;-81
2023/04/06 05:10:09;;;;;;;16.42;14.65;;;3.20;43.10;;;;;;5091205;28;20202;-82
2023/04/06 05:12:38;;;;;;;15.05;13.27;;;3.20;44.20;;;;;;5087925;28;20297;-81
2023/04/06 05:15:07;;;;;;;12.73;11.65;;;3.20;44.70;;;;;;5087767;28;20225;-81
2023/04/06 05:17:35;;;;;;;15.90;13.38;;;3.30;44.20;;;;;;5086435;28;20559;-82
2023/04/06 05:20:04;;;;;;;14.57;11.95;;;3.30;47.60;;;;;;5086534;28;20208;-81
2023/04/06 05:22:32;;;;;;;13.70;12.40;;;3.30;49.60;;;;;;5086768;28;20226;-81
2023/04/06 05:25:02;;;;;;;13.68;12.45;;;3.30;48.50;;;;;;5087151;28;20211;-82
2023/04/06 05:27:30;;;;;;;15.32;12.30;;;3.30;50.40;;;;;;5089319;28;20256;-81
2023/04/06 05:29:59;;;;;;;12.77;11.73;;;3.30;53.80;;;;;;5086262;28;20204;-81
2023/04/06 05:32:28;;;;;;;12.63;11.60;;;3.30;53.50;;;;;;5086584;28;20211;-81
2023/04/06 05:34:57;;;;;;;12.68;11.50;;;3.30;55.70;;;;;;5087006;28;20209;-82
2023/04/06 05:37:25;;;;;;;12.95;11.85;;;3.40;59.00;;;;;;5090475;28;20196;-81
2023/04/06 05:39:53;;;;;;;23.23;12.65;;;3.40;58.90;;;;;;5090455;28;20203;-82
2023/04/06 05:42:23;;;;;;;13.07;11.88;;;3.40;58.30;;;;;;5085265;28;20278;-83
2023/04/06 05:44:51;;;;;;;14.50;12.82;;;3.40;57.50;;;;;;5088699;28;20229;-82
2023/04/06 05:47:20;;;;;;;14.05;12.65;;;3.40;60.60;;;;;;5085858;28;20556;-83
2023/04/06 05:49:48;;;;;;;14.73;13.35;;;3.50;62.80;;;;;;5087308;28;20948;-82
2023/04/06 05:52:16;;;;;;;16.10;14.88;;;3.50;58.50;;;;;;5085936;28;20565;-80
2023/04/06 05:54:44;;;;;;;14.50;13.23;;;3.60;52.10;;;;;;5086006;28;20656;-83
2023/04/06 05:57:12;;;;;;;16.30;14.85;;;3.70;46.50;;;;;;5087773;28;20207;-83
2023/04/06 05:59:42;;;;;;;13.77;12.50;;;3.90;43.00;;;;;;5087183;28;20220;-82
2023/04/06 06:02:11;;;;;;;12.20;11.10;;;4.00;37.30;;;;;;5087502;28;20657;-78
2023/04/06 06:04:39;;;;;;;14.70;13.25;;;4.10;35.10;;;;;;5089959;28;20590;-81
2023/04/06 06:07:07;;;;;;;15.40;12.07;;;4.30;39.60;;;;;;5087481;28;20252;-82
2023/04/06 06:09:36;;;;;;;16.25;13.55;;;4.70;41.80;;;;;;5086053;28;20200;-80
2023/04/06 06:12:04;;;;;;;14.80;12.93;;;5.20;43.90;;;;;;5090196;28;20319;-80
2023/04/06 06:14:32;;;;;;;13.57;12.45;;;5.60;42.20;;;;;;5090501;28;20453;-81
2023/04/06 06:17:02;;;;;;;13.50;12.30;;;5.90;41.00;;;;;;5090904;28;20204;-83
2023/04/06 06:19:30;;;;;;;16.60;13.25;;;6.20;39.00;;;;;;5091809;28;21034;-82
2023/04/06 06:22:01;;;;;;;16.48;14.77;;;6.50;36.00;;;;;;5092267;28;20451;-80
2023/04/06 06:24:31;;;;;;;12.67;11.50;;;6.70;31.90;;;;;;5088864;28;20724;-82
2023/04/06 06:26:59;;;;;;;38.10;25.37;;;6.90;24.60;;;;;;5092717;28;20539;-81
2023/04/06 06:29:27;;;;;;;19.90;16.47;;;7.10;20.20;;;;;;5091390;28;20450;-82
2023/04/06 06:31:55;;;;;;;24.27;18.97;;;7.20;16.90;;;;;;5091753;28;20481;-82
2023/04/06 06:34:25;;;;;;;22.70;17.87;;;7.30;17.10;;;;;;5090238;28;20531;-81
2023/04/06 06:36:55;;;;;;;12.60;11.30;;;7.30;13.70;;;;;;5090817;28;20472;-82
2023/04/06 06:39:23;;;;;;;25.07;14.60;;;7.30;11.50;;;;;;5090596;28;20479;-82
2023/04/06 06:41:51;;;;;;;18.83;15.10;;;7.40;11.40;;;;;;5089730;28;20473;-81
2023/04/06 06:44:19;;;;;;;18.60;16.87;;;7.50;11.90;;;;;;5087788;28;21412;-81
2023/04/06 06:46:47;;;;;;;20.80;17.40;;;7.80;13.20;;;;;;5087217;28;20445;-82
2023/04/06 06:49:16;;;;;;;13.10;11.90;;;7.90;13.40;;;;;;5086477;28;20458;-82
2023/04/06 06:51:46;;;;;;;17.33;14.20;;;7.90;11.90;;;;;;5086330;28;20470;-82
2023/04/06 06:54:15;;;;;;;12.73;11.60;;;7.90;11.00;;;;;;5081772;28;20521;-82
2023/04/06 06:56:43;;;;;;;13.70;12.37;;;7.80;8.70;;;;;;5078662;28;21125;-79
2023/04/06 06:59:11;;;;;;;16.03;12.40;;;7.80;8.50;;;;;;5076136;28;20971;-81
2023/04/06 07:01:40;;;;;;;13.20;11.80;;;7.90;9.00;;;;;;5082491;28;20501;-81
2023/04/06 07:04:08;;;;;;;12.73;11.60;;;7.90;7.80;;;;;;5083236;28;20462;-81
2023/04/06 07:06:37;;;;;;;17.30;15.60;;;8.00;9.70;;;;;;5085556;28;21131;-81
2023/04/06 07:09:07;;;;;;;13.97;12.57;;;8.10;9.00;;;;;;5077150;28;20537;-79
2023/04/06 07:11:35;;;;;;;11.30;10.30;;;8.10;8.60;;;;;;5082816;28;20475;-79
2023/04/06 07:14:03;;;;;;;10.50;9.70;;;8.10;9.00;;;;;;5084561;28;20459;-80
2023/04/06 07:16:31;;;;;;;11.17;9.97;;;8.20;10.10;;;;;;5084401;28;20478;-80
2023/04/06 07:19:00;;;;;;;10.60;9.70;;;8.30;16.80;;;;;;5086742;28;20451;-80
2023/04/06 07:21:28;;;;;;;10.90;9.80;;;8.40;10.40;;;;;;5087803;28;20477;-82
2023/04/06 07:23:56;;;;;;;11.17;10.27;;;8.70;13.90;;;;;;5088216;28;21315;-80
2023/04/06 07:26:26;;;;;;;10.90;10.03;;;8.80;14.00;;;;;;5088330;28;21054;-80
2023/04/06 07:28:54;;;;;;;10.93;9.93;;;9.10;16.70;;;;;;5089403;28;20535;-81
2023/04/06 07:31:23;;;;;;;12.13;11.03;;;9.30;17.00;;;;;;5088935;28;20456;-83
2023/04/06 07:33:51;;;;;;;11.03;10.13;;;9.30;16.00;;;;;;5090422;28;20450;-80
2023/04/06 07:36:19;;;;;;;11.90;9.50;;;9.40;13.40;;;;;;5089908;28;20456;-82
2023/04/06 07:38:48;;;;;;;11.57;10.37;;;9.50;16.00;;;;;;5089222;28;20447;-81
2023/04/06 07:41:17;;;;;;;10.90;10.00;;;9.60;17.50;;;;;;5088445;28;20480;-82
2023/04/06 07:43:47;;;;;;;11.47;10.57;;;9.70;17.40;;;;;;5089879;28;20458;-80
2023/04/06 07:46:15;;;;;;;10.63;9.70;;;9.80;20.50;;;;;;5087926;28;20466;-81
2023/04/06 07:48:43;;;;;;;10.33;9.53;;;10.00;21.60;;;;;;5086403;28;20460;-80
2023/04/06 07:51:14;;;;;;;12.03;10.80;;;10.10;21.20;;;;;;5086032;28;20501;-81
2023/04/06 07:53:43;;;;;;;11.87;10.90;;;10.10;20.10;;;;;;5080470;28;20963;-79
2023/04/06 07:56:11;;;;;;;11.97;10.80;;;10.20;18.80;;;;;;5080601;28;20452;-82
2023/04/06 07:58:40;;;;;;;11.17;10.13;;;10.20;17.10;;;;;;5082876;28;20533;-81
2023/04/06 08:01:09;;;;;;;10.77;9.67;;;10.30;18.00;;;;;;5084957;28;20438;-83
2023/04/06 08:03:38;;;;;;;11.70;10.13;;;10.30;17.30;;;;;;5082365;28;20468;-83
2023/04/06 08:06:07;;;;;;;11.00;9.90;;;10.40;18.00;;;;;;5082389;28;21001;-81
2023/04/06 08:08:36;;;;;;;11.20;10.10;;;10.30;14.60;;;;;;5087137;28;20452;-81
2023/04/06 08:11:04;;;;;;;10.77;9.87;;;10.30;14.50;;;;;;5085062;28;20886;-81
2023/04/06 08:13:32;;;;;;;11.27;10.30;;;10.40;15.20;;;;;;5088147;28;20487;-81
2023/04/06 08:16:00;;;;;;;10.47;9.40;;;10.40;15.20;;;;;;5086857;28;20449;-81
2023/04/06 08:18:30;;;;;;;11.43;10.33;;;10.40;15.70;;;;;;5084950;28;20520;-81
2023/04/06 08:20:58;;;;;;;9.87;9.07;;;10.50;16.30;;;;;;5085902;28;20461;-81
2023/04/06 08:23:27;;;;;;;10.27;9.47;;;10.50;15.10;;;;;;5087258;28;20498;-83
2023/04/06 08:25:55;;;;;;;10.50;9.70;;;10.70;14.70;;;;;;5087041;28;20464;-82
2023/04/06 08:28:24;;;;;;;9.97;9.07;;;10.70;14.60;;;;;;5087966;28;20459;-82
2023/04/06 08:30:52;;;;;;;9.73;9.13;;;10.70;13.70;;;;;;5087678;28;20457;-81
2023/04/06 08:33:21;;;;;;;10.50;9.63;;;10.80;13.70;;;;;;5081095;28;20475;-79
2023/04/06 08:35:51;;;;;;;10.53;9.60;;;10.90;13.50;;;;;;5086000;28;20537;-82
2023/04/06 08:38:19;;;;;;;10.90;9.97;;;10.90;11.30;;;;;;5086916;28;21145;-80
2023/04/06 08:40:49;;;;;;;10.87;10.00;;;10.80;10.10;;;;;;5087305;28;20550;-82
2023/04/06 08:43:20;;;;;;;9.87;9.13;;;10.90;11.50;;;;;;5083186;28;20476;-81
2023/04/06 08:45:48;;;;;;;9.63;8.83;;;11.00;12.50;;;;;;5084116;28;21042;-82
2023/04/06 08:48:18;;;;;;;10.07;9.17;;;11.10;8.50;;;;;;5078096;28;20468;-82
2023/04/06 08:50:47;;;;;;;10.43;9.63;;;11.10;6.80;;;;;;5090371;28;20551;-82
2023/04/06 08:53:17;;;;;;;8.70;7.90;;;11.10;8.30;;;;;;5087525;28;20546;-81
2023/04/06 08:55:46;;;;;;;10.03;9.20;;;11.10;17.30;;;;;;5078566;28;20434;-82
2023/04/06 08:58:14;;;;;;;9.27;8.37;;;11.10;5.70;;;;;;5090933;28;21030;-81
2023/04/06 09:00:59;;;;;;;10.23;9.10;;;11.30;7.70;;;;;;5088419;28;20436;-81
2023/04/06 09:03:29;;;;;;;10.10;8.53;;;11.40;10.30;;;;;;5087883;28;20474;-83
2023/04/06 09:05:59;;;;;;;9.60;8.73;;;11.40;8.20;;;;;;5099424;28;20497;-83
2023/04/06 09:08:29;;;;;;;10.50;8.77;;;11.40;7.00;;;;;;5086834;28;20469;-81
2023/04/06 09:10:57;;;;;;;9.30;8.50;;;11.40;5.60;;;;;;5090595;28;20477;-81
2023/04/06 09:13:25;;;;;;;8.30;7.60;;;11.20;2.90;;;;;;5087800;28;21064;-81
2023/04/06 09:16:01;;;;;;;8.33;6.70;;;11.30;2.40;;;;;;5089486;28;20455;-82
2023/04/06 09:18:30;;;;;;;8.43;7.63;;;11.40;3.70;;;;;;5087602;28;20461;-82
2023/04/06 09:21:01;;;;;;;8.20;7.50;;;11.50;3.80;;;;;;5086140;28;20443;-83
2023/04/06 09:23:31;;;;;;;8.90;8.07;;;11.50;3.80;;;;;;5087017;28;20975;-83
2023/04/06 09:26:10;;;;;;;8.30;7.70;;;11.60;4.00;;;;;;5088179;28;20466;-84
2023/04/06 09:28:46;;;;;;;7.00;6.50;;;11.60;14.70;;;;;;5078413;28;20462;-81
2023/04/06 09:31:15;;;;;;;7.37;6.80;;;11.50;1.00;;;;;;5081236;28;20449;-82
2023/04/06 09:33:45;;;;;;;12.67;7.60;;;11.50;1.00;;;;;;5086146;28;20461;-82
2023/04/06 09:36:15;;;;;;;7.37;6.60;;;11.60;1.00;;;;;;5083522;28;21035;-83
2023/04/06 09:38:56;;;;;;;7.00;6.60;;;11.70;1.10;;;;;;5085430;28;20707;-84
2023/04/06 09:41:25;;;;;;;7.53;7.03;;;11.80;1.00;;;;;;5083361;28;20442;-81
2023/04/06 09:44:03;;;;;;;6.93;6.47;;;11.70;1.00;;;;;;5086208;28;20449;-82
2023/04/06 09:46:34;;;;;;;7.70;7.00;;;11.80;1.00;;;;;;5089470;28;20481;-82
2023/04/06 09:49:23;;;;;;;7.67;7.00;;;11.70;1.00;;;;;;5087709;28;20459;-83
2023/04/06 09:51:56;;;;;;;7.43;6.93;;;11.80;1.00;;;;;;5089352;28;20479;-82
2023/04/06 09:54:29;;;;;;;8.03;7.43;;;11.90;1.00;;;;;;5082264;28;20452;-83
2023/04/06 09:57:08;;;;;;;6.97;6.33;;;12.00;2.40;;;;;;5089030;28;21145;-82
2023/04/06 09:59:44;;;;;;;6.40;6.10;;;12.00;1.00;;;;;;5085007;28;20443;-82
2023/04/06 10:02:20;;;;;;;7.27;6.70;;;12.00;1.00;;;;;;5086994;28;20484;-82
2023/04/06 10:04:57;;;;;;;7.97;7.20;;;12.00;1.00;;;;;;5086790;28;20456;-80
2023/04/06 10:07:27;;;;;;;7.87;7.27;;;12.00;1.00;;;;;;5088211;28;20482;-80
2023/04/06 10:09:58;;;;;;;7.87;7.17;;;12.10;1.50;;;;;;5085777;28;20442;-82
2023/04/06 10:12:26;;;;;;;7.20;6.70;;;12.10;1.00;;;;;;5089406;28;20468;-81
2023/04/06 10:14:55;;;;;;;6.57;6.00;;;12.10;1.00;;;;;;5087746;28;20445;-81
2023/04/06 10:17:24;;;;;;;8.03;7.30;;;12.20;1.00;;;;;;5086764;28;20455;-82
2023/04/06 10:19:55;;;;;;;7.17;6.77;;;12.30;2.00;;;;;;5086640;28;20811;-81
2023/04/06 10:22:37;;;;;;;6.80;6.40;;;12.40;2.40;;;;;;5087175;28;20478;-82
2023/04/06 10:25:08;;;;;;;8.17;7.57;;;12.50;3.50;;;;;;5085943;28;20937;-82
2023/04/06 10:27:37;;;;;;;7.40;6.80;;;12.60;6.20;;;;;;5086620;28;20462;-82
2023/04/06 10:30:07;;;;;;;7.90;7.10;;;12.60;8.10;;;;;;5084778;28;21094;-83
2023/04/06 10:32:37;;;;;;;7.80;7.10;;;12.70;5.70;;;;;;5086359;28;20499;-83
2023/04/06 10:35:10;;;;;;;8.23;7.70;;;12.70;5.90;;;;;;5087187;28;20767;-82
2023/04/06 10:37:49;;;;;;;6.97;6.47;;;12.80;5.00;;;;;;5085956;28;20894;-82
2023/04/06 10:40:24;;;;;;;7.87;7.17;;;12.80;3.70;;;;;;5091131;28;20452;-82
2023/04/06 10:42:53;;;;;;;8.00;7.50;;;12.70;2.60;;;;;;5090225;28;20474;-81
2023/04/06 10:45:23;;;;;;;7.13;6.67;;;12.80;3.60;;;;;;5090636;28;21040;-83
2023/04/06 10:47:54;;;;;;;7.17;6.67;;;12.90;4.20;;;;;;5085874;28;20468;-82
2023/04/06 10:50:23;;;;;;;7.57;6.97;;;12.80;2.70;;;;;;5085506;28;20479;-83
2023/04/06 10:53:00;;;;;;;7.33;6.70;;;12.80;2.30;;;;;;5088558;28;21379;-83
2023/04/06 10:55:31;;;;;;;7.10;6.50;;;12.80;1.50;;;;;;5075244;28;20983;-83
2023/04/06 10:58:00;;;;;;;7.03;6.53;;;12.50;1.00;;;;;;5086031;28;20582;-78
2023/04/06 11:00:28;;;;;;;6.37;5.97;;;12.60;1.00;;;;;;5084788;28;20453;-81
2023/04/06 11:03:14;;;;;;;6.97;6.47;;;12.60;1.00;;;;;;5083519;28;21104;-83
2023/04/06 11:05:45;;;;;;;7.00;6.40;;;12.70;1.00;;;;;;5086491;28;20453;-82
2023/04/06 11:08:24;;;;;;;9.53;8.70;;;12.60;1.00;;;;;;5089910;28;20472;-81
2023/04/06 11:11:06;;;;;;;8.30;7.60;;;12.70;1.10;;;;;;5091743;28;20461;-80
2023/04/06 11:13:42;;;;;;;10.70;9.70;;;12.80;2.60;;;;;;5091631;28;20497;-80
2023/04/06 11:16:16;;;;;;;7.00;6.30;;;12.90;3.20;;;;;;5090776;28;20449;-82
2023/04/06 11:18:52;;;;;;;6.90;6.40;;;13.00;6.70;;;;;;5090798;28;21266;-80
2023/04/06 11:21:31;;;;;;;7.27;6.67;;;13.10;8.10;;;;;;5088392;28;20443;-80
2023/04/06 11:24:06;;;;;;;6.50;6.00;;;13.20;10.00;;;;;;5083970;28;21395;-80
2023/04/06 11:26:40;;;;;;;6.33;5.93;;;13.20;9.20;;;;;;5091562;28;20474;-81
2023/04/06 11:29:08;;;;;;;6.77;6.27;;;13.30;8.50;;;;;;5081462;28;20501;-81
2023/04/06 11:31:41;;;;;;;7.93;7.30;;;13.30;6.90;;;;;;5082284;28;20514;-83
2023/04/06 11:34:13;;;;;;;6.47;6.07;;;13.20;6.20;;;;;;5084673;28;20504;-83
2023/04/06 11:36:43;;;;;;;7.00;6.40;;;13.30;5.40;;;;;;5089166;28;20443;-82
2023/04/06 11:39:12;;;;;;;6.60;6.10;;;13.30;4.70;;;;;;5085181;28;20826;-79
2023/04/06 11:41:42;;;;;;;7.70;7.20;;;13.40;6.10;;;;;;5087691;28;20516;-80
2023/04/06 11:44:10;;;;;;;7.40;6.90;;;13.40;4.60;;;;;;5084795;28;20976;-81
2023/04/06 11:46:38;;;;;;;6.97;6.53;;;13.30;4.70;;;;;;5084882;28;20646;-80
2023/04/06 11:49:06;;;;;;;7.23;6.73;;;13.30;3.80;;;;;;5085363;28;20457;-82
2023/04/06 11:51:37;;;;;;;6.90;6.40;;;13.30;3.70;;;;;;5085877;28;20485;-83
2023/04/06 11:54:05;;;;;;;7.23;6.73;;;13.40;4.20;;;;;;5083465;28;20482;-83
2023/04/06 11:56:33;;;;;;;6.90;6.40;;;13.30;1.70;;;;;;5076655;28;20465;-82
2023/04/06 11:59:04;;;;;;;6.20;5.80;;;13.20;1.00;;;;;;5082381;28;20450;-83
2023/04/06 12:01:32;;;;;;;6.70;6.20;;;13.30;2.50;;;;;;5082393;28;20457;-82
2023/04/06 12:04:06;;;;;;;6.43;5.97;;;13.30;1.00;;;;;;5085748;28;20592;-82
2023/04/06 12:06:35;;;;;;;6.57;6.17;;;13.40;3.90;;;;;;5084607;28;21163;-82
2023/04/06 12:09:03;;;;;;;7.07;6.57;;;13.50;7.10;;;;;;5087646;28;20450;-83
2023/04/06 12:11:31;;;;;;;6.83;6.20;;;13.60;6.60;;;;;;5088969;28;20457;-79
2023/04/06 12:14:01;;;;;;;7.40;6.77;;;13.70;9.60;;;;;;5086814;28;20533;-78
2023/04/06 12:16:30;;;;;;;8.27;7.50;;;13.80;11.80;;;;;;5090752;28;20503;-81
2023/04/06 12:18:59;;;;;;;7.30;6.63;;;13.80;10.80;;;;;;5088873;28;20483;-79
2023/04/06 12:21:28;;;;;;;8.13;7.53;;;13.80;10.00;;;;;;5088373;28;20432;-81
2023/04/06 12:23:56;;;;;;;7.90;7.30;;;13.70;8.30;;;;;;5084015;28;20259;-80
2023/04/06 12:26:24;;;;;;;8.00;7.20;;;13.70;7.40;;;;;;5084800;28;20482;-80
2023/04/06 12:28:53;;;;;;;7.67;6.97;;;13.70;6.90;;;;;;5087092;28;20654;-79
2023/04/06 12:31:23;;;;;;;7.50;6.90;;;13.70;7.60;;;;;;5085384;28;20481;-80
2023/04/06 12:33:53;;;;;;;7.37;6.70;;;13.80;8.50;;;;;;5087041;28;21179;-80
2023/04/06 12:36:22;;;;;;;8.20;7.60;;;13.90;10.00;;;;;;5084478;28;20458;-80
2023/04/06 12:38:51;;;;;;;8.33;7.57;;;14.00;10.80;;;;;;5085598;28;20219;-81
2023/04/06 12:41:19;;;;;;;8.13;7.53;;;14.10;11.90;;;;;;5079919;28;20452;-80
2023/04/06 12:43:49;;;;;;;10.40;7.03;;;14.10;13.20;;;;;;5084176;28;20455;-80
2023/04/06 12:46:18;;;;;;;10.20;8.53;;;14.20;12.50;;;;;;5085775;28;21148;-79
2023/04/06 12:48:46;;;;;;;10.70;8.20;;;14.20;12.40;;;;;;5080101;28;20482;-79
2023/04/06 12:51:17;;;;;;;14.97;7.60;;;14.10;10.90;;;;;;5080345;28;20451;-80
2023/04/06 12:53:45;;;;;;;8.17;7.57;;;14.10;9.80;;;;;;5085631;28;20459;-80
2023/04/06 12:56:15;;;;;;;8.57;7.83;;;14.10;8.10;;;;;;5086934;28;20445;-80